Time;durP1;ratioP1;P1;durP2;ratioP2;P2;SDS_P1;SDS_P2;PMS_P1;PMS_P2;Temp;Humidity;BMP_temperature;BMP_pressure;BME280_temperature;BME280_humidity;BME280_pressure;Samples;Min_cycle;Max_cycle;Signal;HPM_P1;HPM_P2
2021/11/12 00:13:43;;;;;;;33.08;16.67;;;;;;;8.90;79.85;102358.84;5069693;28;20459;-62
2021/11/12 00:16:09;;;;;;;36.90;17.83;;;;;;;8.89;79.86;102364.25;5070095;28;20025;-60
2021/11/12 00:18:36;;;;;;;40.95;17.42;;;;;;;8.88;79.80;102351.94;5069903;28;20038;-61
2021/11/12 00:21:03;;;;;;;36.30;16.83;;;;;;;8.87;79.62;102351.06;5070143;28;20025;-59
2021/11/12 00:23:31;;;;;;;34.97;18.25;;;;;;;8.82;79.66;102355.00;5070052;28;20060;-60
2021/11/12 00:25:57;;;;;;;36.97;17.48;;;;;;;8.83;79.47;102346.09;5069654;28;20041;-59
2021/11/12 00:28:26;;;;;;;43.35;19.45;;;;;;;8.82;79.05;102334.59;5069674;28;20067;-59
2021/11/12 00:38:35;;;;;;;39.83;18.37;;;;;;;8.74;79.00;102331.59;5069760;28;20036;-59
2021/11/12 00:43:47;;;;;;;41.88;18.85;;;;;;;8.72;78.61;102323.72;5070044;28;20048;-59
2021/11/12 00:48:57;;;;;;;38.53;17.37;;;;;;;8.71;78.54;102313.22;5073295;28;20436;-60
2021/11/12 00:54:06;;;;;;;38.05;17.27;;;;;;;8.70;78.10;102311.50;5073194;28;20107;-60
2021/11/12 00:56:32;;;;;;;32.57;15.50;;;;;;;8.70;77.83;102308.84;5073096;28;20032;-61
2021/11/12 00:59:01;;;;;;;35.97;16.23;;;;;;;8.68;77.67;102314.25;5073119;28;20029;-60
2021/11/12 01:01:31;;;;;;;34.57;16.43;;;;;;;8.68;77.38;102305.41;5072698;28;20035;-60
2021/11/12 01:03:57;;;;;;;33.97;16.60;;;;;;;8.68;77.29;102308.94;5072841;28;20152;-60
2021/11/12 01:06:23;;;;;;;30.35;15.70;;;;;;;8.70;77.27;102303.53;5073136;28;20032;-60
2021/11/12 01:08:50;;;;;;;30.40;15.60;;;;;;;8.71;77.28;102299.91;5073002;28;20024;-59
2021/11/12 01:11:17;;;;;;;32.73;15.73;;;;;;;8.70;77.17;102309.69;5072784;28;20513;-59
2021/11/12 01:13:46;;;;;;;32.75;15.90;;;;;;;8.66;76.73;102300.22;5072874;28;20383;-59
2021/11/12 01:16:12;;;;;;;28.88;14.73;;;;;;;8.66;76.99;102300.22;5072568;28;20047;-62
2021/11/12 01:18:38;;;;;;;23.98;14.23;;;;;;;8.65;76.40;102290.53;5072542;28;20451;-60
2021/11/12 01:21:06;;;;;;;25.52;14.32;;;;;;;8.66;76.05;102286.09;5072973;28;20027;-60
2021/11/12 01:23:34;;;;;;;27.67;14.63;;;;;;;8.67;76.22;102291.28;5072960;28;20166;-59
2021/11/12 01:26:00;;;;;;;24.02;14.07;;;;;;;8.66;76.03;102280.78;5077481;23;20052;-60
2021/11/12 01:28:26;;;;;;;25.02;14.52;;;;;;;8.63;76.24;102287.16;5072604;28;20051;-59
2021/11/12 01:30:53;;;;;;;23.48;13.82;;;;;;;8.62;75.99;102282.78;5072652;28;20024;-60
2021/11/12 01:33:18;;;;;;;21.92;13.73;;;;;;;8.62;76.14;102288.94;5072305;28;20036;-60
2021/11/12 01:35:44;;;;;;;24.05;13.75;;;;;;;8.60;76.13;102280.22;5072646;28;20028;-60
2021/11/12 01:38:09;;;;;;;24.10;13.48;;;;;;;8.58;76.33;102278.63;5072508;28;20467;-59
2021/11/12 01:40:35;;;;;;;28.43;13.70;;;;;;;8.56;76.61;102278.72;5072366;28;20496;-62
2021/11/12 01:43:25;;;;;;;24.40;12.57;;;;;;;8.57;76.57;102276.91;5072431;28;20017;-61
2021/11/12 01:53:40;;;;;;;24.83;13.33;;;;;;;8.52;77.14;102279.88;5072220;28;20090;-60
2021/11/12 02:01:15;;;;;;;25.73;13.97;;;;;;;8.59;77.26;102275.03;5072107;28;20072;-59
2021/11/12 02:03:41;;;;;;;22.93;14.30;;;;;;;8.57;77.52;102271.59;5071781;28;20123;-59
2021/11/12 02:06:07;;;;;;;26.60;13.23;;;;;;;8.54;78.36;102270.00;5071939;28;20032;-60
2021/11/12 02:08:33;;;;;;;21.05;12.68;;;;;;;8.56;77.76;102268.09;5071840;28;20107;-59
2021/11/12 02:10:58;;;;;;;19.98;12.35;;;;;;;8.57;77.81;102268.94;5071846;28;20073;-59
2021/11/12 02:13:25;;;;;;;29.13;14.00;;;;;;;8.56;78.13;102265.44;5071624;28;20028;-59
2021/11/12 02:15:51;;;;;;;27.77;13.83;;;;;;;8.54;78.66;102243.44;5071543;28;20267;-64
2021/11/12 02:18:27;;;;;;;25.30;13.73;;;;;;;8.54;78.90;102240.78;5071262;28;20032;-59
2021/11/12 02:21:09;;;;;;;26.20;14.93;;;;;;;8.53;78.94;102239.06;5071551;28;20143;-60
2021/11/12 02:23:36;;;;;;;31.67;15.53;;;;;;;8.57;78.67;102245.03;5071499;28;20105;-60
2021/11/12 02:26:04;;;;;;;26.73;15.10;;;;;;;8.56;78.38;102246.84;5071430;28;20087;-60
2021/11/12 02:28:30;;;;;;;29.07;16.07;;;;;;;8.56;78.37;102238.88;5071419;28;20032;-60
2021/11/12 02:30:55;;;;;;;27.33;15.93;;;;;;;8.55;78.55;102225.66;5071353;28;20491;-60
2021/11/12 02:33:25;;;;;;;24.63;14.97;;;;;;;8.53;78.47;102216.97;5071146;28;20059;-59
2021/11/12 02:36:06;;;;;;;25.57;15.93;;;;;;;8.48;78.88;102209.28;5053573;28;20078;-60
2021/11/12 02:38:35;;;;;;;28.90;16.37;;;;;;;8.46;79.02;102197.94;5071097;28;20036;-60
2021/11/12 02:41:00;;;;;;;27.63;15.87;;;;;;;8.40;79.27;102200.97;5071516;28;20028;-60
2021/11/12 02:43:26;;;;;;;30.50;15.60;;;;;;;8.44;78.48;102216.63;5053226;28;20025;-60
2021/11/12 02:45:52;;;;;;;24.35;15.57;;;;;;;8.43;78.66;102219.34;5071242;28;20263;-60
2021/11/12 02:48:20;;;;;;;24.67;14.63;;;;;;;8.40;79.13;102215.09;5070713;28;20483;-60
2021/11/12 02:50:46;;;;;;;27.00;15.53;;;;;;;8.40;78.98;102203.63;5070902;28;20126;-60
2021/11/12 02:53:14;;;;;;;29.25;15.43;;;;;;;8.41;79.01;102194.72;5070830;28;20016;-60
2021/11/12 02:55:41;;;;;;;27.57;15.00;;;;;;;8.38;78.99;102186.94;5070883;28;20037;-59
2021/11/12 02:58:07;;;;;;;29.53;14.57;;;;;;;8.35;78.81;102181.84;5070856;28;20320;-60
2021/11/12 03:00:34;;;;;;;29.27;16.52;;;;;;;8.33;78.82;102186.41;5052949;28;20484;-61
2021/11/12 03:02:59;;;;;;;30.23;16.00;;;;;;;8.29;78.65;102175.97;5070776;28;20024;-59
2021/11/12 03:05:25;;;;;;;25.00;14.80;;;;;;;8.33;78.28;102178.44;5070644;28;20086;-59
2021/11/12 03:07:50;;;;;;;27.80;15.03;;;;;;;8.32;78.39;102180.25;5070385;28;20670;-59
2021/11/12 03:10:15;;;;;;;26.77;15.10;;;;;;;8.28;78.42;102176.09;5070368;28;20285;-59
2021/11/12 03:12:42;;;;;;;30.23;15.77;;;;;;;8.31;78.62;102176.75;5070883;28;20472;-59
2021/11/12 03:15:09;;;;;;;24.07;14.57;;;;;;;8.31;78.49;102162.59;5070464;28;20035;-59
2021/11/12 03:17:36;;;;;;;25.93;15.33;;;;;;;8.28;78.25;102154.84;5070751;28;20028;-59
2021/11/12 03:20:03;;;;;;;;;;;;;;;8.29;78.32;102160.03;5070773;28;20082;-60
2021/11/12 03:22:34;;;;;;;24.50;14.98;;;;;;;8.30;77.73;102161.75;5069364;28;20010;-59
2021/11/12 03:25:06;;;;;;;25.57;14.73;;;;;;;8.30;78.02;102144.97;5070736;28;20036;-59
2021/11/12 03:47:14;;;;;;;24.73;14.60;;;;;;;8.15;78.22;102115.00;5070673;28;20462;-59
2021/11/12 04:40:37;;;;;;;21.03;13.93;;;;;;;7.79;77.32;102069.59;5073268;28;20063;-59
2021/11/12 05:43:31;;;;;;;28.70;16.90;;;;;;;6.42;81.16;102041.28;5113271;28;20035;-60
2021/11/12 05:51:29;;;;;;;27.70;17.10;;;;;;;6.05;82.37;101994.09;5112766;28;20058;-60
2021/11/12 05:56:40;;;;;;;26.23;17.77;;;;;;;5.97;82.49;101959.28;5112684;28;20100;-61
2021/11/12 05:59:07;;;;;;;30.30;17.03;;;;;;;5.92;83.21;101949.00;5112721;28;20103;-60
2021/11/12 06:01:34;;;;;;;36.13;19.00;;;;;;;5.86;83.03;101961.72;5112721;28;20034;-60
2021/11/12 06:03:59;;;;;;;29.57;18.87;;;;;;;5.77;83.14;101971.94;5112710;28;20077;-60
2021/11/12 06:06:25;;;;;;;29.07;18.23;;;;;;;5.74;83.43;101968.59;5112465;28;20031;-60
2021/11/12 06:08:50;;;;;;;30.97;19.30;;;;;;;5.69;84.07;101966.25;5112339;28;20023;-60
2021/11/12 06:11:16;;;;;;;30.33;18.03;;;;;;;5.66;84.13;101953.22;5112489;28;20386;-60
2021/11/12 06:13:42;;;;;;;34.40;18.88;;;;;;;5.64;84.17;101953.28;5112400;28;20299;-60
2021/11/12 06:16:09;;;;;;;35.38;20.75;;;;;;;5.59;84.12;101951.88;5112384;28;20040;-60
2021/11/12 06:18:35;;;;;;;33.07;20.67;;;;;;;5.54;84.45;101952.16;5112245;28;20026;-60
2021/11/12 06:21:00;;;;;;;37.90;21.03;;;;;;;5.49;84.95;101941.00;5112173;28;20023;-59
2021/11/12 06:23:27;;;;;;;36.63;20.23;;;;;;;5.45;84.75;101927.13;5112618;28;20027;-61
2021/11/12 06:25:53;;;;;;;37.50;22.57;;;;;;;5.42;84.64;101931.72;5093277;28;20055;-59
2021/11/12 06:28:18;;;;;;;37.70;21.52;;;;;;;5.40;84.93;101928.34;5112203;28;20218;-59
2021/11/12 06:30:44;;;;;;;36.50;23.00;;;;;;;5.38;85.08;101936.34;5112149;28;20473;-59
2021/11/12 06:33:09;;;;;;;41.83;21.50;;;;;;;5.34;85.22;101940.09;5111916;28;20051;-60
2021/11/12 06:35:35;;;;;;;37.33;22.17;;;;;;;5.31;85.70;101943.78;5111637;28;20265;-63
2021/11/12 06:38:00;;;;;;;34.47;20.73;;;;;;;5.32;85.30;101964.00;5111964;28;20054;-63
2021/11/12 06:40:25;;;;;;;39.30;22.67;;;;;;;5.26;85.54;101961.69;5111717;28;20399;-59
2021/11/12 06:50:37;;;;;;;40.47;23.50;;;;;;;5.14;86.16;101936.00;5111817;28;20066;-60
2021/11/12 06:53:04;;;;;;;38.30;22.30;;;;;;;5.12;86.49;101936.09;5111720;28;20106;-60
2021/11/12 06:55:29;;;;;;;;;;;;;;;5.08;86.34;101929.28;5111891;28;20020;-61
2021/11/12 06:57:54;;;;;;;39.97;22.43;;;;;;;5.06;86.73;101927.66;5111419;28;20399;-60
2021/11/12 07:00:21;;;;;;;40.30;22.07;;;;;;;5.05;86.74;101934.72;5111618;28;20469;-61
2021/11/12 07:02:47;;;;;;;39.17;22.17;;;;;;;5.04;86.62;101933.03;5111366;28;20169;-60
2021/11/12 07:05:13;;;;;;;48.00;25.80;;;;;;;5.04;86.95;101932.19;5111181;28;20035;-60
2021/11/12 07:07:39;;;;;;;;;;;;;;;5.02;86.73;101927.00;5111575;28;20035;-60
2021/11/12 07:10:05;;;;;;;43.00;22.77;;;;;;;5.04;86.75;101935.66;5111259;28;19911;-60
2021/11/12 07:12:30;;;;;;;;;;;;;;;5.03;86.68;101933.09;5111969;28;20065;-60
2021/11/12 07:14:56;;;;;;;44.10;24.97;;;;;;;5.01;86.99;101937.66;5111066;28;19961;-60
2021/11/12 07:17:21;;;;;;;43.43;23.93;;;;;;;5.02;87.16;101934.91;5111250;28;20031;-60
2021/11/12 07:19:47;;;;;;;42.15;23.50;;;;;;;5.03;86.94;101927.81;5092609;28;20439;-61
2021/11/12 07:22:13;;;;;;;44.30;24.13;;;;;;;5.01;87.02;101920.00;5111153;28;20031;-60
2021/11/12 07:24:39;;;;;;;;;;;;;;;5.01;86.99;101919.16;5111828;28;20432;-61
2021/11/12 07:27:06;;;;;;;39.07;22.20;;;;;;;5.04;86.90;101913.69;5110663;28;19915;-60
2021/11/12 07:29:34;;;;;;;41.57;24.80;;;;;;;5.05;87.13;101908.31;5111175;28;20031;-60
2021/11/12 07:31:59;;;;;;;45.03;25.37;;;;;;;5.02;87.22;101902.34;5111164;28;20034;-60
2021/11/12 07:34:27;;;;;;;46.42;26.52;;;;;;;5.03;87.02;101902.28;5110908;28;20106;-60
2021/11/12 07:36:58;;;;;;;45.50;25.07;;;;;;;5.05;86.80;101904.81;5110966;28;20444;-60
2021/11/12 07:39:35;;;;;;;42.07;24.73;;;;;;;5.07;86.65;101900.28;5111031;28;20381;-60
2021/11/12 07:47:14;;;;;;;41.33;24.00;;;;;;;5.26;86.32;101892.97;5110811;28;20084;-60
2021/11/12 07:49:44;;;;;;;49.43;25.63;;;;;;;5.30;85.65;101899.78;5110991;28;20035;-60
2021/11/12 07:52:11;;;;;;;41.20;25.53;;;;;;;5.35;85.13;101894.22;5110733;28;20482;-60
2021/11/12 07:54:36;;;;;;;;;;;;;;;5.39;84.93;101890.47;5111589;28;20112;-60
2021/11/12 07:57:03;;;;;;;42.23;23.37;;;;;;;5.42;85.01;101884.13;5114893;28;20441;-60
2021/11/12 07:59:28;;;;;;;47.23;26.63;;;;;;;5.37;84.83;101881.78;5114998;28;20038;-59
2021/11/12 08:01:54;;;;;;;48.22;26.77;;;;;;;5.42;84.90;101873.56;5114938;28;20094;-60
2021/11/12 08:04:20;;;;;;;44.63;25.40;;;;;;;5.47;85.07;101877.63;5115246;28;20023;-60
2021/11/12 08:06:49;;;;;;;48.10;26.20;;;;;;;5.45;84.63;101876.00;5114666;28;20027;-60
2021/11/12 08:09:16;;;;;;;43.80;25.23;;;;;;;5.49;85.00;101862.53;5114765;28;20031;-59
2021/11/12 08:11:50;;;;;;;46.70;25.70;;;;;;;5.51;84.79;101867.72;5114392;28;20023;-59
2021/11/12 08:14:23;;;;;;;46.87;26.30;;;;;;;5.59;84.43;101865.44;5114706;28;20055;-60
2021/11/12 08:22:24;;;;;;;46.77;24.80;;;;;;;5.68;84.38;101857.91;5114805;28;20115;-59
2021/11/12 08:25:09;;;;;;;40.47;24.42;;;;;;;5.77;83.88;101847.59;5114463;28;20035;-59
2021/11/12 08:35:18;;;;;;;38.83;24.83;;;;;;;5.80;83.32;101843.91;5114215;28;20032;-60
2021/11/12 08:40:56;;;;;;;43.90;26.13;;;;;;;5.89;82.96;101840.69;5030878;28;20445;-59
2021/11/12 08:43:28;;;;;;;47.03;26.17;;;;;;;5.96;82.78;101831.44;5030583;28;20033;-60
2021/11/12 08:48:24;;;;;;;48.17;26.03;;;;;;;6.01;82.60;101825.88;5030684;28;20073;-61
2021/11/12 08:50:50;;;;;;;48.07;26.80;;;;;;;6.08;82.24;101828.97;5030439;28;20625;-60
2021/11/12 08:53:16;;;;;;;42.70;27.42;;;;;;;6.05;81.71;101822.06;5030508;28;20112;-61
2021/11/12 08:55:43;;;;;;;52.03;27.07;;;;;;;6.10;81.72;101814.69;5030370;28;20026;-61
2021/11/12 08:58:10;;;;;;;42.50;25.87;;;;;;;6.17;81.61;101817.78;5030251;28;20560;-61
2021/11/12 09:00:37;;;;;;;41.50;25.67;;;;;;;6.25;81.75;101828.75;5030172;28;20104;-62
2021/11/12 09:03:03;;;;;;;48.47;26.67;;;;;;;6.39;80.65;101830.50;5030501;28;20548;-61
2021/11/12 09:05:29;;;;;;;50.33;28.42;;;;;;;6.36;80.67;101825.41;5030407;28;20120;-61
2021/11/12 09:07:54;;;;;;;51.92;28.98;;;;;;;6.26;80.52;101814.53;5029097;28;20041;-61
2021/11/12 09:10:25;;;;;;;47.90;27.42;;;;;;;6.16;81.41;101805.53;5030387;28;20038;-61
2021/11/12 09:12:59;;;;;;;52.93;28.40;;;;;;;6.19;80.25;101802.69;5030110;28;20104;-61
2021/11/12 09:15:28;;;;;;;57.50;29.57;;;;;;;6.21;80.73;101798.16;5030252;28;20113;-62
2021/11/12 09:17:55;;;;;;;58.43;29.57;;;;;;;6.18;80.22;101802.78;5075057;28;20043;-61
2021/11/12 09:20:22;;;;;;;58.40;29.23;;;;;;;6.20;80.05;101800.88;5113276;28;20471;-62
2021/11/12 09:22:47;;;;;;;;;;;;;;;6.15;79.92;101795.88;5095452;28;20059;-61
2021/11/12 09:25:14;;;;;;;55.20;26.70;;;;;;;6.14;80.37;101791.53;5118434;22;19980;-61
2021/11/12 09:27:39;;;;;;;60.53;28.77;;;;;;;6.23;79.75;101793.59;5092808;28;20047;-61
2021/11/12 09:30:07;;;;;;;57.83;28.17;;;;;;;6.31;79.83;101785.97;5092518;28;20024;-60
2021/11/12 09:32:32;;;;;;;56.67;27.47;;;;;;;6.23;80.47;101788.28;5092828;28;20035;-61
2021/11/12 09:34:58;;;;;;;50.00;25.93;;;;;;;6.44;79.86;101786.03;5092688;28;20036;-61
2021/11/12 09:37:24;;;;;;;54.00;26.27;;;;;;;6.60;78.48;101785.00;5092834;28;20081;-61
2021/11/12 09:39:54;;;;;;;51.20;23.95;;;;;;;6.71;78.62;101779.00;5092641;28;20036;-62
2021/11/12 09:42:25;;;;;;;49.50;23.53;;;;;;;6.79;78.37;101777.53;5092428;28;20024;-61
2021/11/12 09:44:52;;;;;;;50.77;25.80;;;;;;;6.85;77.58;101778.06;5092233;28;20020;-61
2021/11/12 09:47:25;;;;;;;54.30;26.40;;;;;;;6.96;77.50;101778.16;5092877;28;20016;-61
2021/11/12 09:49:53;;;;;;;49.80;24.43;;;;;;;7.02;77.09;101769.81;5092478;28;20020;-60
2021/11/12 09:52:18;;;;;;;51.90;25.63;;;;;;;7.01;77.24;101767.28;5092609;28;20016;-60
2021/11/12 09:54:45;;;;;;;53.17;25.27;;;;;;;6.71;77.20;101763.97;5092313;28;20028;-61
2021/11/12 09:57:11;;;;;;;;;;;;;;;6.60;77.93;101767.31;5092799;28;20645;-60
2021/11/12 09:59:37;;;;;;;45.00;23.53;;;;;;;6.53;78.46;101768.69;5091531;28;19977;-61
2021/11/12 10:02:05;;;;;;;42.60;22.85;;;;;;;6.58;78.33;101766.59;5092395;28;20447;-61
2021/11/12 10:04:30;;;;;;;44.63;25.10;;;;;;;6.68;78.59;101764.16;5092150;28;20041;-61
2021/11/12 10:06:57;;;;;;;48.00;24.48;;;;;;;6.73;78.58;101767.34;5092059;28;20020;-61
2021/11/12 10:09:23;;;;;;;44.33;24.00;;;;;;;6.93;77.58;101755.41;5092063;28;20055;-61
2021/11/12 10:11:53;;;;;;;45.55;24.25;;;;;;;6.84;77.69;101742.75;5092077;28;20454;-61
2021/11/12 10:14:38;;;;;;;44.07;21.87;;;;;;;6.93;77.73;101744.81;5090411;28;20035;-61
2021/11/12 10:17:06;;;;;;;40.67;23.07;;;;;;;6.85;77.44;101747.13;5091898;28;20028;-61
2021/11/12 10:19:38;;;;;;;46.50;22.57;;;;;;;7.04;77.34;101733.47;5091562;28;20024;-61
2021/11/12 10:22:04;;;;;;;41.40;22.23;;;;;;;7.11;76.46;101729.41;5091797;28;20150;-62
2021/11/12 10:24:32;;;;;;;39.13;22.25;;;;;;;7.24;75.69;101725.91;5091835;28;20106;-61
2021/11/12 10:27:11;;;;;;;41.30;21.73;;;;;;;7.25;75.76;101724.94;5091594;28;20067;-60
2021/11/12 10:29:51;;;;;;;36.23;20.50;;;;;;;7.30;75.63;101723.69;5091782;28;20034;-61
2021/11/12 10:32:22;;;;;;;37.73;21.83;;;;;;;7.23;75.17;101711.78;5091528;28;20027;-61
2021/11/12 10:34:52;;;;;;;40.47;22.67;;;;;;;7.23;76.08;101708.31;5091573;28;20118;-61
2021/11/12 10:37:25;;;;;;;40.27;22.00;;;;;;;7.35;75.21;101709.25;5091346;28;20027;-61
2021/11/12 10:39:57;;;;;;;36.83;21.77;;;;;;;7.52;74.23;101700.91;5091125;28;20023;-61
2021/11/12 10:42:24;;;;;;;38.60;20.30;;;;;;;7.82;73.87;101708.44;5091111;28;20024;-62
2021/11/12 10:44:56;;;;;;;35.70;21.00;;;;;;;7.88;72.75;101696.56;5091312;28;20028;-61
2021/11/12 10:47:23;;;;;;;35.93;20.43;;;;;;;7.89;72.81;101690.31;5091059;28;20131;-61
2021/11/12 10:49:50;;;;;;;38.07;20.37;;;;;;;8.09;72.25;101688.81;5090996;28;20039;-61
2021/11/12 10:52:18;;;;;;;38.60;20.97;;;;;;;8.25;71.84;101685.00;5091109;28;20499;-61
2021/11/12 10:55:00;;;;;;;38.33;21.80;;;;;;;8.33;71.18;101679.13;5091258;28;20031;-61
2021/11/12 10:57:38;;;;;;;35.70;21.40;;;;;;;8.25;71.22;101669.09;5089663;28;20025;-61
2021/11/12 11:00:07;;;;;;;34.97;21.43;;;;;;;8.25;70.76;101666.44;5090961;28;20024;-61
2021/11/12 11:02:37;;;;;;;36.10;20.77;;;;;;;8.25;70.84;101664.59;5090861;28;20028;-61
2021/11/12 11:05:11;;;;;;;39.20;22.10;;;;;;;8.31;71.07;101652.66;5091025;28;20028;-61
2021/11/12 11:07:37;;;;;;;39.97;21.63;;;;;;;8.44;71.15;101649.91;5091078;28;20099;-61
2021/11/12 11:10:05;;;;;;;35.17;21.30;;;;;;;8.38;71.15;101645.06;5090902;28;20153;-61
2021/11/12 11:12:42;;;;;;;37.57;22.37;;;;;;;8.40;70.86;101651.13;5091020;28;20031;-61
2021/11/12 11:15:12;;;;;;;;;;;;;;;8.33;71.41;101644.59;5091646;28;20020;-61
2021/11/12 11:17:42;;;;;;;37.03;22.20;;;;;;;8.37;71.14;101635.44;5090781;28;19920;-62
2021/11/12 11:20:10;;;;;;;36.07;20.63;;;;;;;8.45;70.71;101633.03;5090801;28;20028;-61
2021/11/12 11:22:56;;;;;;;40.07;22.00;;;;;;;8.47;70.64;101623.16;5090856;28;20424;-62
2021/11/12 11:25:31;;;;;;;38.13;22.60;;;;;;;8.50;70.62;101620.28;5090612;28;20362;-61
2021/11/12 11:28:00;;;;;;;36.47;22.13;;;;;;;8.42;71.90;101615.50;5090808;28;20044;-61
2021/11/12 11:30:27;;;;;;;34.47;20.67;;;;;;;8.35;71.27;101614.28;5089962;28;20055;-61
2021/11/12 11:32:52;;;;;;;34.60;20.63;;;;;;;8.36;70.98;101604.53;5090334;28;20020;-62
2021/11/12 11:35:20;;;;;;;41.63;19.90;;;;;;;8.34;71.53;101599.34;5090532;28;20019;-62
2021/11/12 11:37:46;;;;;;;34.77;20.37;;;;;;;8.40;71.25;101592.69;5090396;28;20020;-61
2021/11/12 11:40:14;;;;;;;38.03;20.13;;;;;;;8.42;70.81;101578.31;5090245;28;20111;-62
2021/11/12 11:42:41;;;;;;;35.47;20.37;;;;;;;8.37;71.38;101592.94;5090551;28;20024;-61
2021/11/12 11:45:07;;;;;;;33.43;20.17;;;;;;;8.36;71.73;101583.28;5090371;28;20067;-61
2021/11/12 11:47:33;;;;;;;32.30;20.52;;;;;;;8.35;71.43;101574.44;5090165;28;20020;-61
2021/11/12 11:49:59;;;;;;;35.70;20.73;;;;;;;8.35;71.36;101570.94;5090589;28;20095;-61
2021/11/12 11:52:27;;;;;;;34.08;19.15;;;;;;;8.29;71.58;101566.97;5090371;28;20540;-62
2021/11/12 11:54:54;;;;;;;34.03;20.27;;;;;;;8.26;71.61;101567.19;5089592;28;20536;-62
2021/11/12 11:57:25;;;;;;;32.83;19.80;;;;;;;8.34;71.80;101562.16;5090188;28;20024;-62
2021/11/12 12:00:25;;;;;;;36.80;19.97;;;;;;;8.33;71.42;101555.13;5090048;28;20067;-61
2021/11/12 12:03:20;;;;;;;36.03;19.83;;;;;;;8.31;71.90;101560.56;5089817;28;20021;-62
2021/11/12 12:06:17;;;;;;;33.83;19.90;;;;;;;8.20;71.54;101554.41;5090277;28;20024;-61
2021/11/12 12:09:01;;;;;;;32.97;18.73;;;;;;;8.22;71.69;101553.31;5047201;28;20392;-61
2021/11/12 12:11:27;;;;;;;29.83;18.37;;;;;;;8.28;71.95;101552.81;5046778;28;20037;-61
2021/11/12 12:14:32;;;;;;;30.87;18.60;;;;;;;8.22;71.70;101545.34;5047233;28;20582;-62
2021/11/12 12:17:02;;;;;;;27.57;17.83;;;;;;;8.26;72.06;101545.94;5027315;28;20311;-61
2021/11/12 13:20:23;;;;;;;26.30;17.23;;;;;;;8.63;71.79;101411.09;5092857;28;20031;-61
2021/11/12 13:25:39;;;;;;;30.45;18.63;;;;;;;8.62;71.49;101398.78;5099611;22;20079;-61
2021/11/12 13:28:13;;;;;;;26.83;18.03;;;;;;;8.69;71.19;101403.59;5092752;28;20038;-65
2021/11/12 13:30:41;;;;;;;27.80;17.77;;;;;;;8.69;71.17;101391.16;5092655;28;20076;-65
2021/11/12 13:33:44;;;;;;;27.52;16.33;;;;;;;8.76;71.08;101397.66;5092753;28;20073;-62
2021/11/12 13:36:25;;;;;;;27.95;17.27;;;;;;;8.82;70.97;101396.31;5106663;28;20099;-63
2021/11/12 13:39:03;;;;;;;37.30;18.23;;;;;;;8.88;70.80;101398.47;5113042;28;20031;-62
2021/11/12 13:41:35;;;;;;;26.38;17.00;;;;;;;8.89;70.59;101397.50;5112936;28;20046;-64
2021/11/12 13:44:05;;;;;;;27.20;17.30;;;;;;;8.89;70.63;101389.53;5112960;28;20102;-64
2021/11/12 13:46:48;;;;;;;27.92;16.85;;;;;;;8.92;70.42;101383.13;5113126;28;20030;-63
2021/11/12 13:49:43;;;;;;;30.52;17.55;;;;;;;8.91;70.31;101379.59;5112872;28;20068;-64
2021/11/12 13:52:30;;;;;;;26.15;17.52;;;;;;;8.95;70.26;101377.53;5112317;28;20050;-62
2021/11/12 13:55:04;;;;;;;32.92;17.35;;;;;;;8.97;70.33;101359.66;5112863;28;20054;-63
2021/11/12 13:57:30;;;;;;;24.50;15.00;;;;;;;9.04;69.64;101365.28;5112922;28;20023;-63
2021/11/12 13:59:59;;;;;;;24.95;15.10;;;;;;;9.02;69.30;101367.22;5112533;28;20031;-64
2021/11/12 14:02:26;;;;;;;27.10;15.90;;;;;;;9.01;69.57;101366.41;5112601;28;20039;-63
2021/11/12 14:04:51;;;;;;;;;;;;;;;8.94;68.98;101359.88;5112939;28;20119;-63
2021/11/12 14:07:24;;;;;;;21.93;14.17;;;;;;;9.00;68.91;101371.84;5112153;28;19999;-62
2021/11/12 14:10:05;;;;;;;24.30;15.65;;;;;;;8.97;68.72;101373.78;5112569;28;20027;-63
2021/11/12 14:12:31;;;;;;;24.92;16.25;;;;;;;8.99;68.81;101365.66;5112314;28;20484;-64
2021/11/12 14:15:04;;;;;;;;;;;;;;;9.02;69.02;101372.53;5112805;28;20228;-63
2021/11/12 14:17:31;;;;;;;25.50;14.80;;;;;;;9.08;68.59;101362.22;5112293;28;19980;-63
2021/11/12 14:20:19;;;;;;;24.77;16.10;;;;;;;9.08;68.49;101356.91;5112067;28;20031;-63
2021/11/12 14:25:27;;;;;;;23.37;14.40;;;;;;;8.99;68.74;101340.91;5111938;28;20119;-64
2021/11/12 14:31:06;;;;;;;29.27;13.82;;;;;;;8.96;69.23;101331.38;5112615;28;20501;-62
2021/11/12 14:36:44;;;;;;;29.35;14.77;;;;;;;8.97;69.14;101325.94;5111869;28;20124;-64
2021/11/12 14:53:40;;;;;;;23.75;13.45;;;;;;;8.94;70.08;101341.28;4969408;28;20046;-62
2021/11/12 14:58:43;;;;;;;21.27;12.97;;;;;;;8.95;69.92;101335.81;4969687;28;20154;-61
2021/11/12 15:01:16;;;;;;;20.55;11.73;;;;;;;8.98;69.38;101326.75;4969507;28;20079;-62
2021/11/12 15:03:43;;;;;;;17.90;12.15;;;;;;;9.02;68.71;101322.03;4969375;28;20434;-65
2021/11/12 15:06:10;;;;;;;22.05;12.50;;;;;;;9.03;69.15;101316.56;4968859;28;20097;-62
2021/11/12 15:08:43;;;;;;;18.23;11.10;;;;;;;9.05;68.73;101316.44;4969275;28;20039;-62
2021/11/12 15:11:10;;;;;;;21.17;11.60;;;;;;;9.05;68.79;101312.00;4969439;28;20039;-60
2021/11/12 15:13:37;;;;;;;20.70;12.43;;;;;;;9.04;68.89;101317.44;4969424;28;20085;-61
2021/11/12 15:16:08;;;;;;;21.02;12.32;;;;;;;9.02;69.19;101300.75;4969363;28;20626;-61
2021/11/12 15:18:34;;;;;;;19.15;11.10;;;;;;;9.04;68.75;101302.31;4969207;28;20029;-67
2021/11/12 15:21:02;;;;;;;17.70;11.93;;;;;;;9.06;68.63;101299.53;4969345;28;20039;-66
2021/11/12 15:23:45;;;;;;;17.88;10.65;;;;;;;9.11;68.63;101297.31;4969095;28;20282;-67
2021/11/12 15:29:13;;;;;;;18.13;10.88;;;;;;;9.18;68.50;101303.81;5008155;28;20125;-63
2021/11/12 15:31:49;;;;;;;19.15;10.65;;;;;;;9.21;68.77;101300.06;5008148;28;20036;-62
2021/11/12 15:34:15;;;;;;;20.98;10.13;;;;;;;9.22;68.17;101293.75;5008075;28;20042;-63
2021/11/12 15:37:01;;;;;;;17.27;10.95;;;;;;;9.21;68.02;101292.91;5008244;28;20129;-63
2021/11/12 15:42:54;;;;;;;16.67;9.23;;;;;;;9.24;67.42;101281.16;4969031;28;20113;-63
2021/11/12 15:45:15;;;;;;;11.55;8.20;;;;;;;9.28;66.00;101272.81;4966079;28;20086;-64
2021/11/12 15:47:45;;;;;;;13.17;8.17;;;;;;;9.33;65.60;101266.25;4968923;28;20043;-64
2021/11/12 15:50:37;;;;;;;15.25;7.72;;;;;;;9.33;65.57;101274.22;4968988;28;20571;-61
2021/11/12 16:11:32;;;;;;;15.05;8.55;;;;;;;9.25;65.21;101266.91;5008011;28;20072;-64
2021/11/12 16:14:03;;;;;;;14.90;8.05;;;;;;;9.25;65.47;101264.25;5007980;28;20061;-64
2021/11/12 16:16:48;;;;;;;11.63;7.55;;;;;;;9.22;66.10;101256.50;5009421;28;20030;-69
2021/11/12 16:19:30;;;;;;;16.58;8.02;;;;;;;9.21;66.35;101268.97;5050213;28;20110;-66
2021/11/12 16:27:17;;;;;;;13.05;7.78;;;;;;;9.15;67.34;101264.16;5077571;28;20052;-67
2021/11/12 16:29:50;;;;;;;16.25;9.13;;;;;;;9.11;67.44;101266.28;5094063;28;20020;-66
2021/11/12 16:32:22;;;;;;;16.90;9.27;;;;;;;9.10;67.50;101264.59;5093883;28;20044;-63
2021/11/12 16:34:51;;;;;;;18.25;9.32;;;;;;;9.09;67.92;101251.44;5094229;28;20065;-66
2021/11/12 16:37:19;;;;;;;15.82;9.32;;;;;;;9.09;68.00;101249.59;5093840;28;20475;-65
2021/11/12 16:42:43;;;;;;;15.20;9.60;;;;;;;9.05;69.02;101252.63;5030776;28;20064;-65
2021/11/12 16:47:54;;;;;;;14.27;8.73;;;;;;;9.05;69.48;101249.97;5030718;28;20607;-65
2021/11/12 17:03:50;;;;;;;13.73;9.73;;;;;;;8.97;70.68;101218.75;5030661;28;20092;-64
2021/11/12 17:06:18;;;;;;;16.13;10.55;;;;;;;8.90;71.25;101215.75;5030471;28;20044;-65
2021/11/12 17:11:46;;;;;;;17.93;9.77;;;;;;;8.83;71.28;101214.63;5030226;28;20048;-65
2021/11/12 17:22:51;;;;;;;14.80;9.93;;;;;;;8.55;72.99;101224.06;5093060;28;20634;-65
2021/11/12 17:45:01;;;;;;;14.80;10.00;;;;;;;8.58;71.79;101223.84;5133736;27;20519;-64
2021/11/12 17:47:28;;;;;;;15.93;9.98;;;;;;;8.62;71.88;101227.91;5133606;27;20023;-65
2021/11/12 18:03:19;;;;;;;14.40;9.73;;;;;;;8.34;73.32;101211.59;5049312;28;20036;-63
2021/11/12 21:47:17;;;;;;;17.97;11.93;;;;;;;8.38;86.49;101047.50;5092284;28;20121;-67
2021/11/12 21:49:43;;;;;;;18.40;12.47;;;;;;;8.35;86.60;101045.97;5092511;28;20028;-70